To NAV CANADA Home Page Login to a new session Search on AWWS site Feedback and Comments Disclaimer Vers la page française équivalente Tips FAQ What's new on the site To the Forecasts and Observations / NOTAM section To "File a Flight Plan" website Publications and other links Update of the User's profile FIC Telephone Numbers My Weather Data Folder Route Weather Data Regional Weather Data Local Weather Data To the Forecasts and Observations / NOTAM section
Request Generated 04/30/2017 at 05:05:28 UTC . Weather information available at that time is displayed.

METAR/TAF

If you find any discrepancies between the coded METAR/TAF and the plain language METAR/TAF please use the coded METAR/TAF. LWIS bulletins are not decoded in plain language.

CALGARY/SPRINGBANK/AB    (show WxCam)

METAR CYBW 300500Z AUTO 20006KT 9SM BKN080 OVC170 05/M01 A2984 RMK SLP131=
METAR
LOCATION
CYBW - CALGARY/SPRINGBANK/AB
DATE - TIME
30 APRIL 2017 - 0500 UTC
WIND
200 TRUE @ 6  KNOTS
VISIBILITY
9 STAT.  MILES
RUNWAY VISUAL RANGE
WEATHER
CLOUDINESS
BROKEN CLOUDS (5/8 - 7/8) 8000  FT
OVERCAST 17000  FT
TEMP / DEWPOINT
5 C / -1 C
ALTIMETER
29.84 IN HG
RECENT WEATHER
WIND SHEAR

METAR CYBW 300400Z AUTO 22006KT 9SM BKN090 OVC110 06/M00 A2986 RMK SLP139=
METAR
LOCATION
CYBW - CALGARY/SPRINGBANK/AB
DATE - TIME
30 APRIL 2017 - 0400 UTC
WIND
220 TRUE @ 6  KNOTS
VISIBILITY
9 STAT.  MILES
RUNWAY VISUAL RANGE
WEATHER
CLOUDINESS
BROKEN CLOUDS (5/8 - 7/8) 9000  FT
OVERCAST 11000  FT
TEMP / DEWPOINT
6 C / 0 C
ALTIMETER
29.86 IN HG
RECENT WEATHER
WIND SHEAR

METAR CYBW 300300Z AUTO 25007KT 9SM FEW075 OVC095 07/M02 A2988 RMK SLP147 DENSITY ALT 4000FT=
METAR
LOCATION
CYBW - CALGARY/SPRINGBANK/AB
DATE - TIME
30 APRIL 2017 - 0300 UTC
WIND
250 TRUE @ 7  KNOTS
VISIBILITY
9 STAT.  MILES
RUNWAY VISUAL RANGE
WEATHER
CLOUDINESS
FEW CLOUDS (1/8 - 2/8) 7500  FT
OVERCAST 9500  FT
TEMP / DEWPOINT
7 C / -2 C
ALTIMETER
29.88 IN HG
RECENT WEATHER
WIND SHEAR

*** REMARK        : Forecast period has ended; this was the last TAF issued
TAF CYBW 292340Z 3000/3004 26012KT P6SM SCT080 RMK FCST BASED ON AUTO OBS. NXT FCST WILL BE ISSUED AT 301145Z=
TAF
LOCATION

CYBW - CALGARY/SPRINGBANK/AB
VALIDITY [UTC]
29 APR - 2340 to
30 APR - 0400
 
TIMES
[UTC]
WIND
[DEGREES TRUE]
VISIBILITY
[STAT. MILES]
WEATHER
CLOUDINESS
[FEET AGL]
 
30 APR - 0000 to
30 APR - 0400
260 @ 12 KNOTS
6+
NIL
8000 SCATTERED
REMARKS
THE FORECAST IS BASED ON AUTOMATIC OBSERVATIONS - THE NEXT FORECAST WILL BE ISSUED AT 1145 UTC ON DAY 30


Your time UTC time
Weather data provided by Environment Canada and NAV CANADA